Eugene, Oregon
Current Conditions -  °F | °C
As of 3:54 PM on Saturday 25 Oct 2014 (Local Time) from KEUG Reporting Station
Moderate Rain Moderate Rain  
Wind Chill: 14°   Ceiling: 3300
Heat Index: 14°   Visibility: 3mi
Dew Point: 12°   Wind: 21mph
Humidity: 89%   Direction: 230°SW
Pressure: 29.62"   Gusts: 32mph
Location:  44.05°N, 123.08°W
Report Text: KEUG 252254Z 23018G28KT 3SM R16R/6000VP6000FT RA BR SCT021 OVC033 14/12 A2962 RMK AO2 PK WND 19037/2159 RAEMMB30 PRESRR SLP031 P0003 T01390122 $
Loading
Personal Weather Stations






























Interactive Weather Map New forecast layout! Learn more

10-Day Weather Forecast

Advertisements
Track Severe Weather on mobile